createdAt,value
2023-04-23T21:01:41.659Z,75.47
2023-04-23T21:04:27.783Z,75.18
2023-04-23T21:06:55.396Z,74.95
2023-04-23T21:09:22.811Z,75.58
2023-04-23T21:12:08.540Z,76.20
2023-04-23T21:14:36.447Z,75.60
2023-04-23T21:17:04.258Z,75.48
2023-04-23T21:19:31.668Z,74.66
2023-04-23T21:21:58.991Z,75.07
2023-04-23T21:24:26.330Z,75.33
2023-04-23T21:26:55.003Z,75.33
2023-04-23T21:29:22.322Z,75.06
2023-04-23T21:31:52.627Z,75.91
2023-04-23T21:34:21.672Z,76.14
2023-04-23T21:36:49.717Z,76.45
2023-04-23T21:39:17.036Z,76.39
2023-04-23T21:41:45.198Z,76.31
2023-04-23T21:44:12.367Z,76.61
2023-04-23T21:46:39.932Z,76.10
2023-04-23T21:49:08.296Z,75.89
2023-04-23T21:51:37.206Z,75.89
2023-04-23T21:54:06.137Z,76.14
2023-04-23T21:56:34.302Z,75.50
2023-04-23T21:59:01.683Z,75.87
2023-04-23T22:01:29.062Z,75.74
2023-04-23T22:03:56.514Z,75.93
2023-04-23T22:06:23.818Z,76.09
2023-04-23T22:08:52.649Z,76.02
2023-04-23T22:11:20.633Z,75.96
2023-04-23T22:13:48.027Z,75.98
2023-04-23T22:16:27.535Z,75.85
2023-04-23T22:18:59.014Z,76.20
2023-04-23T22:21:26.329Z,76.25
2023-04-23T22:23:53.608Z,76.59
2023-04-23T22:26:21.908Z,76.15
2023-04-23T22:28:49.024Z,76.58
2023-04-23T22:31:16.426Z,76.46
2023-04-23T22:33:44.347Z,76.70
2023-04-23T22:36:11.780Z,75.63
2023-04-23T22:38:39.682Z,76.68
2023-04-23T22:41:07.129Z,76.49
2023-04-23T22:43:34.454Z,76.29
2023-04-23T22:46:01.838Z,75.86
2023-04-23T22:48:29.405Z,76.20
2023-04-23T22:50:59.476Z,75.80
2023-04-23T22:53:26.805Z,76.49
2023-04-23T22:55:54.146Z,76.61
2023-04-23T22:58:21.596Z,77.19
2023-04-23T23:00:49.009Z,76.96
2023-04-23T23:03:16.857Z,76.30
2023-04-23T23:05:44.513Z,76.18
2023-04-23T23:08:11.819Z,76.04
2023-04-23T23:10:39.204Z,76.28
2023-04-23T23:13:06.547Z,75.99
2023-04-23T23:15:33.979Z,76.15
2023-04-23T23:18:01.471Z,75.75
2023-04-23T23:20:29.043Z,76.14
2023-04-23T23:22:56.306Z,76.16
2023-04-23T23:25:23.675Z,76.59
2023-04-23T23:27:51.091Z,75.92
2023-04-23T23:30:18.794Z,75.63
2023-04-23T23:32:46.438Z,75.46
2023-04-23T23:35:13.895Z,75.85
2023-04-23T23:37:41.352Z,76.20
2023-04-23T23:40:10.957Z,76.21
2023-04-23T23:42:38.279Z,76.07
2023-04-23T23:45:05.927Z,75.94
2023-04-23T23:47:33.375Z,76.12
2023-04-23T23:50:00.738Z,75.92
2023-04-23T23:52:28.014Z,75.68
2023-04-23T23:54:55.354Z,75.55
2023-04-23T23:57:22.683Z,75.09
2023-04-23T23:59:50.113Z,75.56
